createdAt,value
2018-10-05T00:00:26.314Z,15.80
2018-10-05T00:02:54.649Z,19.93
2018-10-05T00:05:22.988Z,18.00
2018-10-05T00:07:51.349Z,18.90
2018-10-05T00:10:19.669Z,17.70
2018-10-05T00:12:48.023Z,16.97
2018-10-05T00:15:16.333Z,17.50
2018-10-05T00:17:44.681Z,15.70
2018-10-05T00:20:12.992Z,13.90
2018-10-05T00:22:41.345Z,17.40
2018-10-05T00:25:09.686Z,13.20
2018-10-05T00:27:38.009Z,14.30
2018-10-05T00:30:06.345Z,15.90
2018-10-05T00:32:34.729Z,14.57
2018-10-05T00:35:03.044Z,16.83
2018-10-05T00:37:31.365Z,22.90
2018-10-05T00:39:59.728Z,17.17
2018-10-05T00:42:28.082Z,16.13
2018-10-05T00:44:56.418Z,17.87
2018-10-05T00:47:24.753Z,15.07
2018-10-05T00:49:53.057Z,14.00
2018-10-05T00:52:21.392Z,11.57
2018-10-05T00:54:49.721Z,15.33
2018-10-05T00:57:18.057Z,13.53
2018-10-05T00:59:46.378Z,14.17
2018-10-05T01:02:14.714Z,14.77
2018-10-05T01:04:43.033Z,15.13
2018-10-05T01:07:11.367Z,17.83
2018-10-05T01:09:39.685Z,20.23
2018-10-05T01:12:08.013Z,17.93
2018-10-05T01:14:36.339Z,17.20
2018-10-05T01:17:04.750Z,13.90
2018-10-05T01:19:34.541Z,19.53
2018-10-05T01:22:02.874Z,18.40
2018-10-05T01:24:31.192Z,21.47
2018-10-05T01:26:59.535Z,21.17
2018-10-05T01:29:28.125Z,26.00
2018-10-05T01:31:56.492Z,23.00
2018-10-05T01:34:24.817Z,20.43
2018-10-05T01:36:53.158Z,22.93
2018-10-05T01:39:21.489Z,18.93
2018-10-05T01:41:49.810Z,19.90
2018-10-05T01:44:18.132Z,14.83
2018-10-05T01:46:46.524Z,17.40
2018-10-05T01:49:14.881Z,16.17
2018-10-05T01:51:43.194Z,15.00
2018-10-05T01:54:11.542Z,14.37
2018-10-05T01:56:39.883Z,19.77
2018-10-05T01:59:08.245Z,14.57
2018-10-05T02:01:36.550Z,18.77
2018-10-05T02:04:04.900Z,20.33
2018-10-05T02:06:33.225Z,18.97
2018-10-05T02:09:01.605Z,20.83
2018-10-05T02:11:29.921Z,18.03
2018-10-05T02:13:58.237Z,16.40
2018-10-05T02:16:26.553Z,20.07
2018-10-05T02:18:54.905Z,14.17
2018-10-05T02:21:23.222Z,15.87
2018-10-05T02:23:51.649Z,14.67
2018-10-05T02:26:19.954Z,19.70
2018-10-05T02:28:48.264Z,14.20
2018-10-05T02:31:17.212Z,15.23
2018-10-05T02:33:45.534Z,12.97
2018-10-05T02:36:13.833Z,14.13
2018-10-05T02:38:42.172Z,20.90
2018-10-05T02:41:10.473Z,14.67
2018-10-05T02:43:38.797Z,17.50
2018-10-05T02:46:07.241Z,15.70
2018-10-05T02:48:35.562Z,18.03
2018-10-05T02:51:03.862Z,19.00
2018-10-05T02:53:32.181Z,14.90
2018-10-05T02:56:00.497Z,13.03
2018-10-05T02:58:28.817Z,17.77
2018-10-05T03:08:08.674Z,16.83
2018-10-05T03:10:36.976Z,14.27
2018-10-05T03:13:05.302Z,17.27
2018-10-05T03:15:33.615Z,14.77
2018-10-05T03:18:02.050Z,17.13
2018-10-05T03:20:30.344Z,17.37
2018-10-05T03:22:58.666Z,17.63
2018-10-05T03:25:26.999Z,13.57
2018-10-05T03:27:55.303Z,12.53
2018-10-05T03:30:23.621Z,14.30
2018-10-05T03:32:51.934Z,15.17
2018-10-05T03:35:20.261Z,13.23
2018-10-05T03:37:48.574Z,14.63
2018-10-05T03:40:16.896Z,15.00
2018-10-05T03:42:45.192Z,16.40
2018-10-05T03:45:13.516Z,14.20
2018-10-05T03:47:41.888Z,17.93
2018-10-05T03:50:10.341Z,15.43
2018-10-05T03:52:39.005Z,12.67
2018-10-05T03:55:07.352Z,20.50
2018-10-05T03:57:35.658Z,10.80
2018-10-05T04:00:04.038Z,14.73
2018-10-05T04:02:32.373Z,17.73
2018-10-05T04:05:00.712Z,15.57
2018-10-05T04:07:29.014Z,13.40
2018-10-05T04:09:57.336Z,13.30
2018-10-05T04:12:25.654Z,13.77
2018-10-05T04:14:53.986Z,13.57
2018-10-05T04:17:22.306Z,21.30
2018-10-05T04:19:50.638Z,14.70
2018-10-05T04:22:23.841Z,13.33
2018-10-05T04:24:52.173Z,14.33
2018-10-05T04:27:20.570Z,20.63
2018-10-05T04:29:48.854Z,16.00
2018-10-05T04:32:17.198Z,18.37
2018-10-05T04:34:45.849Z,17.83
2018-10-05T04:37:14.157Z,16.80
2018-10-05T04:39:42.615Z,17.60
2018-10-05T04:42:11.277Z,14.23
2018-10-05T04:44:39.658Z,19.27
2018-10-05T04:47:08.024Z,13.70
2018-10-05T04:49:36.418Z,20.50
2018-10-05T04:52:04.682Z,19.60
2018-10-05T04:54:33.014Z,19.20
2018-10-05T04:57:01.430Z,21.03
2018-10-05T04:59:29.693Z,23.37
2018-10-05T05:01:58.013Z,18.03
2018-10-05T05:04:26.337Z,14.00
2018-10-05T05:06:54.658Z,18.33
2018-10-05T05:09:22.989Z,17.90
2018-10-05T05:11:51.398Z,16.67
2018-10-05T05:14:19.725Z,16.07
2018-10-05T05:16:48.032Z,20.63
2018-10-05T05:19:16.369Z,17.83
2018-10-05T05:21:44.681Z,20.43
2018-10-05T05:24:13.011Z,21.67
2018-10-05T05:26:41.322Z,16.83
2018-10-05T05:29:09.650Z,13.90
2018-10-05T05:31:37.972Z,16.20
2018-10-05T05:34:06.763Z,17.20
2018-10-05T05:36:34.986Z,14.77
2018-10-05T05:39:04.705Z,13.73
2018-10-05T05:41:33.058Z,13.03
2018-10-05T05:44:01.371Z,15.60
2018-10-05T05:46:29.697Z,15.43
2018-10-05T05:48:58.004Z,19.77
2018-10-05T05:51:26.339Z,14.90
2018-10-05T05:53:54.653Z,12.03
2018-10-05T05:56:22.985Z,15.40
2018-10-05T05:58:51.292Z,14.97
2018-10-05T06:01:19.625Z,16.33
2018-10-05T06:03:47.948Z,15.23
2018-10-05T06:06:16.301Z,14.00
2018-10-05T06:08:44.601Z,18.13
2018-10-05T06:11:12.945Z,17.13
2018-10-05T06:13:41.276Z,15.27
2018-10-05T06:16:09.694Z,21.07
2018-10-05T06:18:37.918Z,18.40
2018-10-05T06:21:06.462Z,19.30
2018-10-05T06:23:34.776Z,16.10
2018-10-05T06:26:03.099Z,18.47
2018-10-05T06:28:31.445Z,17.07
2018-10-05T06:30:59.921Z,18.50
2018-10-05T06:33:28.350Z,17.37
2018-10-05T06:35:56.675Z,14.77
2018-10-05T06:38:24.993Z,13.83
2018-10-05T06:40:53.358Z,12.83
2018-10-05T06:43:21.674Z,15.57
2018-10-05T06:45:50.003Z,15.23
2018-10-05T06:48:18.339Z,14.37
2018-10-05T06:50:46.684Z,16.10
2018-10-05T06:53:15.069Z,18.83
2018-10-05T06:55:43.398Z,15.47
2018-10-05T06:58:11.717Z,19.63
2018-10-05T07:00:40.062Z,15.47
2018-10-05T07:03:08.364Z,14.73
2018-10-05T07:05:36.717Z,17.97
2018-10-05T07:08:05.048Z,14.00
2018-10-05T07:10:33.797Z,14.43
2018-10-05T07:13:02.456Z,15.77
2018-10-05T07:15:30.834Z,12.83
2018-10-05T07:17:59.145Z,14.23
2018-10-05T07:20:27.481Z,15.93
2018-10-05T07:22:55.795Z,12.83
2018-10-05T07:25:24.111Z,17.17
2018-10-05T07:27:52.439Z,13.73
2018-10-05T07:30:20.745Z,14.73
2018-10-05T07:32:49.099Z,14.17
2018-10-05T07:35:17.442Z,16.93
2018-10-05T07:37:45.786Z,12.53
2018-10-05T07:40:14.123Z,15.70
2018-10-05T07:42:42.457Z,8.67
2018-10-05T07:45:10.778Z,10.37
2018-10-05T07:47:39.121Z,10.43
2018-10-05T07:50:07.473Z,9.53
2018-10-05T07:52:35.931Z,14.43
2018-10-05T07:55:04.301Z,13.80
2018-10-05T07:57:32.653Z,15.07
2018-10-05T08:00:00.962Z,11.73
2018-10-05T08:02:29.325Z,14.40
2018-10-05T08:04:57.663Z,13.87
2018-10-05T08:07:26.037Z,14.07
2018-10-05T08:09:54.357Z,18.70
2018-10-05T08:12:22.698Z,12.90
2018-10-05T08:14:51.050Z,11.87
2018-10-05T08:17:19.405Z,15.87
2018-10-05T08:19:47.779Z,10.20
2018-10-05T08:22:16.139Z,15.13
2018-10-05T08:24:44.470Z,14.63
2018-10-05T08:27:13.072Z,9.87
2018-10-05T08:29:41.191Z,15.90
2018-10-05T08:32:09.539Z,15.80
2018-10-05T08:34:38.036Z,10.53
2018-10-05T08:37:06.385Z,12.23
2018-10-05T08:39:34.710Z,12.93
2018-10-05T08:42:03.065Z,11.53
2018-10-05T08:44:31.371Z,10.37
2018-10-05T08:46:59.701Z,10.03
2018-10-05T08:49:28.022Z,11.80
2018-10-05T08:51:56.384Z,11.90
2018-10-05T08:54:24.682Z,9.73
2018-10-05T08:56:53.020Z,12.97
2018-10-05T08:59:21.338Z,14.33
2018-10-05T09:01:49.685Z,10.17
2018-10-05T09:04:18.065Z,11.60
2018-10-05T09:06:46.449Z,9.50
2018-10-05T09:09:14.768Z,11.87
2018-10-05T09:11:43.101Z,12.23
2018-10-05T09:14:11.438Z,11.13
2018-10-05T09:16:39.786Z,11.13
2018-10-05T09:19:08.568Z,12.77
2018-10-05T09:21:36.952Z,11.97
2018-10-05T09:24:05.312Z,9.90
2018-10-05T09:26:33.661Z,8.83
2018-10-05T09:29:02.006Z,10.07
2018-10-05T09:31:30.324Z,14.93
2018-10-05T09:33:58.654Z,10.07
2018-10-05T09:36:26.977Z,8.03
2018-10-05T09:38:55.324Z,7.47
2018-10-05T09:41:23.641Z,8.80
2018-10-05T09:43:51.968Z,9.03
2018-10-05T09:46:20.291Z,7.40
2018-10-05T09:48:48.629Z,12.30
2018-10-05T09:51:16.972Z,12.13
2018-10-05T09:53:45.285Z,9.93
2018-10-05T09:56:13.607Z,9.27
2018-10-05T09:58:41.953Z,10.37
2018-10-05T10:01:15.466Z,6.67
2018-10-05T10:03:43.811Z,8.23
2018-10-05T10:06:12.129Z,6.93
2018-10-05T10:08:40.484Z,6.50
2018-10-05T10:11:08.788Z,6.43
2018-10-05T10:13:37.209Z,8.87
2018-10-05T10:16:05.530Z,6.97
2018-10-05T10:18:33.880Z,4.43
2018-10-05T10:21:02.225Z,5.27
2018-10-05T10:23:30.594Z,6.40
2018-10-05T10:25:58.920Z,6.13
2018-10-05T10:28:27.334Z,6.23
2018-10-05T10:30:55.599Z,5.27
2018-10-05T10:33:23.945Z,8.10
2018-10-05T10:35:52.258Z,6.40
2018-10-05T10:38:20.607Z,6.93
2018-10-05T10:40:48.937Z,7.37
2018-10-05T10:43:17.260Z,5.63
2018-10-05T10:45:45.626Z,5.47
2018-10-05T10:48:14.020Z,8.33
2018-10-05T10:50:42.309Z,6.60
2018-10-05T10:53:10.696Z,7.67
2018-10-05T10:55:40.269Z,5.07
2018-10-05T10:58:09.265Z,8.00
2018-10-05T11:00:38.215Z,5.47
2018-10-05T11:03:07.371Z,5.40
2018-10-05T11:05:35.648Z,7.07
2018-10-05T11:08:03.973Z,4.77
2018-10-05T11:10:32.687Z,8.20
2018-10-05T11:13:01.057Z,5.07
2018-10-05T11:15:29.374Z,5.40
2018-10-05T11:17:57.703Z,5.03
2018-10-05T11:20:26.052Z,7.67
2018-10-05T11:22:54.352Z,4.60
2018-10-05T11:25:22.681Z,4.60
2018-10-05T11:27:50.994Z,5.50
2018-10-05T11:30:19.384Z,7.23
2018-10-05T11:32:47.809Z,5.70
2018-10-05T11:35:16.146Z,4.33
2018-10-05T11:37:44.457Z,4.23
2018-10-05T11:40:12.846Z,3.10
2018-10-05T11:42:41.202Z,4.13
2018-10-05T11:45:09.546Z,2.97
2018-10-05T11:47:37.909Z,2.87
2018-10-05T11:50:06.273Z,3.20
2018-10-05T11:52:34.637Z,2.00
2018-10-05T11:55:03.093Z,2.43
2018-10-05T11:57:31.405Z,4.17
2018-10-05T11:59:59.762Z,2.50
2018-10-05T12:02:28.340Z,2.57
2018-10-05T12:04:56.661Z,2.50
2018-10-05T12:07:24.995Z,4.23
2018-10-05T12:09:53.417Z,3.00
2018-10-05T12:12:21.733Z,5.83
2018-10-05T12:14:50.086Z,2.23
2018-10-05T12:17:18.384Z,2.83
2018-10-05T12:19:46.716Z,3.93
2018-10-05T12:22:15.053Z,2.30
2018-10-05T12:24:43.394Z,2.80
2018-10-05T12:27:11.719Z,5.13
2018-10-05T12:29:40.050Z,2.10
2018-10-05T12:32:08.373Z,3.07
2018-10-05T12:34:36.739Z,4.10
2018-10-05T12:37:05.340Z,3.13
2018-10-05T12:39:33.636Z,2.10
2018-10-05T12:42:02.289Z,3.93
2018-10-05T12:44:30.606Z,2.07
2018-10-05T12:46:58.942Z,2.30
2018-10-05T12:49:27.271Z,2.77
2018-10-05T12:51:55.576Z,3.53
2018-10-05T12:54:24.292Z,3.60
2018-10-05T12:58:14.500Z,3.03
2018-10-05T13:00:44.755Z,4.33
2018-10-05T13:03:14.790Z,2.93
2018-10-05T13:05:45.226Z,2.67
2018-10-05T13:08:15.314Z,3.10
2018-10-05T13:10:45.072Z,2.30
2018-10-05T16:00:41.490Z,7.07
2018-10-05T16:03:09.831Z,8.13
2018-10-05T16:05:40.369Z,6.40
2018-10-05T16:08:09.464Z,7.50
2018-10-05T16:10:39.678Z,6.30
2018-10-05T16:13:10.175Z,4.73
2018-10-05T16:15:40.325Z,5.10
2018-10-05T16:18:09.412Z,5.30
2018-10-05T16:20:38.443Z,5.17
2018-10-05T16:23:07.411Z,5.50
2018-10-05T16:25:36.481Z,5.60
2018-10-05T16:28:05.359Z,6.33
2018-10-05T16:30:34.203Z,5.17
2018-10-05T16:33:04.022Z,5.90
2018-10-05T16:35:32.864Z,4.87
2018-10-05T16:38:02.260Z,6.60
2018-10-05T16:40:31.304Z,6.17
2018-10-05T16:43:00.083Z,5.47
2018-10-05T16:45:28.406Z,13.70
2018-10-05T16:47:57.117Z,7.83
2018-10-05T16:50:26.101Z,8.97
2018-10-05T16:52:55.284Z,8.83
2018-10-05T16:55:24.210Z,8.87
2018-10-05T16:57:52.929Z,8.27
2018-10-05T17:00:21.765Z,6.93
2018-10-05T17:02:50.106Z,6.77
2018-10-05T17:05:19.207Z,5.77
2018-10-05T17:07:48.391Z,5.30
2018-10-05T17:10:17.459Z,6.63
2018-10-05T17:12:45.801Z,6.63
2018-10-05T17:15:14.662Z,6.20
2018-10-05T17:17:43.867Z,5.70
2018-10-05T17:20:12.772Z,5.90
2018-10-05T17:22:41.647Z,9.03
2018-10-05T17:25:09.954Z,5.90
2018-10-05T17:27:38.270Z,7.30
2018-10-05T17:30:06.629Z,7.10
2018-10-05T17:32:35.813Z,6.33
2018-10-05T17:35:04.201Z,6.70
2018-10-05T17:37:33.138Z,6.40
2018-10-05T17:40:02.011Z,7.03
2018-10-05T17:42:31.175Z,6.50
2018-10-05T17:44:59.565Z,6.90
2018-10-05T17:47:28.460Z,7.17
2018-10-05T17:49:57.927Z,6.83
2018-10-05T17:52:26.894Z,7.90
2018-10-05T17:54:56.645Z,7.70
2018-10-05T17:57:25.770Z,6.70
2018-10-05T17:59:54.921Z,7.57
2018-10-05T18:02:24.112Z,9.03
2018-10-05T18:04:52.878Z,11.00
2018-10-05T18:07:21.767Z,8.77
2018-10-05T18:09:51.023Z,8.20
2018-10-05T18:12:20.230Z,10.13
2018-10-05T18:14:49.081Z,9.40
2018-10-05T18:17:18.037Z,10.97
2018-10-05T18:19:46.653Z,9.63
2018-10-05T18:22:15.666Z,10.10
2018-10-05T18:24:44.683Z,10.97
2018-10-05T18:27:13.596Z,13.47
2018-10-05T18:29:42.114Z,14.97
2018-10-05T18:32:10.822Z,11.30
2018-10-05T18:34:40.240Z,12.37
2018-10-05T18:37:08.641Z,10.63
2018-10-05T18:39:37.016Z,9.77
2018-10-05T18:42:05.710Z,10.87
2018-10-05T18:44:34.594Z,12.73
2018-10-05T18:47:03.438Z,12.97
2018-10-05T18:49:32.503Z,10.67
2018-10-05T18:52:01.496Z,10.77
2018-10-05T18:54:30.591Z,15.50
2018-10-05T18:57:10.553Z,14.07
2018-10-05T18:59:39.763Z,12.40
2018-10-05T19:02:09.361Z,11.33
2018-10-05T19:04:38.385Z,16.73
2018-10-05T19:07:08.011Z,10.67
2018-10-05T19:09:37.069Z,10.57
2018-10-05T19:12:06.568Z,10.50
2018-10-05T19:14:35.865Z,8.93
2018-10-05T19:17:04.200Z,8.70
2018-10-05T19:19:33.094Z,9.47
2018-10-05T19:22:02.119Z,10.87
2018-10-05T19:24:31.157Z,10.03
2018-10-05T19:26:59.924Z,11.73
2018-10-05T19:29:28.436Z,13.67
2018-10-05T19:31:57.491Z,12.20
2018-10-05T19:34:26.279Z,12.00
2018-10-05T19:36:54.671Z,10.00
2018-10-05T19:39:23.004Z,12.10
2018-10-05T19:41:52.203Z,9.63
2018-10-05T19:44:21.429Z,13.67
2018-10-05T19:46:49.806Z,12.83
2018-10-05T19:49:19.115Z,15.03
2018-10-05T19:51:47.442Z,11.70
2018-10-05T19:54:15.808Z,14.13
2018-10-05T19:56:44.430Z,10.33
2018-10-05T19:59:13.657Z,13.77
2018-10-05T20:01:43.005Z,12.00
2018-10-05T20:04:12.343Z,12.53
2018-10-05T20:06:40.737Z,9.63
2018-10-05T20:09:09.077Z,12.67
2018-10-05T20:11:37.379Z,10.47
2018-10-05T20:14:06.379Z,10.80
2018-10-05T20:16:34.772Z,11.20
2018-10-05T20:19:03.825Z,12.93
2018-10-05T20:21:32.888Z,14.90
2018-10-05T20:24:01.525Z,11.10
2018-10-05T20:26:30.163Z,12.80
2018-10-05T20:28:58.962Z,10.30
2018-10-05T20:31:27.990Z,11.17
2018-10-05T20:33:57.381Z,10.27
2018-10-05T20:36:26.209Z,9.97
2018-10-05T20:38:54.547Z,10.73
2018-10-05T20:41:23.285Z,9.00
2018-10-05T20:43:52.484Z,11.13
2018-10-05T20:46:21.951Z,9.50
2018-10-05T20:48:50.389Z,9.60
2018-10-05T20:51:24.062Z,8.10
2018-10-05T20:53:52.714Z,8.90
2018-10-05T20:56:21.066Z,10.10
2018-10-05T20:58:49.360Z,12.57
2018-10-05T21:01:18.668Z,11.63
2018-10-05T21:03:47.046Z,11.87
2018-10-05T21:06:15.409Z,12.40
2018-10-05T21:08:43.728Z,10.77
2018-10-05T21:11:12.266Z,11.27
2018-10-05T21:13:41.003Z,14.03
2018-10-05T21:16:09.542Z,10.80
2018-10-05T21:18:38.713Z,11.47
2018-10-05T21:21:08.215Z,12.23
2018-10-05T21:23:37.565Z,12.47
2018-10-05T21:26:05.970Z,12.07
2018-10-05T21:28:34.291Z,13.87
2018-10-05T21:31:02.618Z,11.13
2018-10-05T21:33:30.920Z,13.13
2018-10-05T21:35:59.253Z,11.60
2018-10-05T21:38:27.954Z,11.03
2018-10-05T21:40:57.289Z,10.63
2018-10-05T21:43:26.352Z,10.70
2018-10-05T21:45:54.660Z,10.27
2018-10-05T21:48:23.021Z,10.43
2018-10-05T21:50:51.355Z,12.63
2018-10-05T21:53:19.693Z,14.13
2018-10-05T21:55:48.074Z,10.63
2018-10-05T21:58:17.326Z,11.17
2018-10-05T22:00:46.282Z,9.37
2018-10-05T22:03:14.638Z,10.67
2018-10-05T22:05:42.975Z,10.07
2018-10-05T22:08:11.273Z,9.97
2018-10-05T22:10:39.592Z,11.27
2018-10-05T22:13:07.891Z,11.27
2018-10-05T22:15:36.246Z,12.23
2018-10-05T22:18:04.550Z,10.63
2018-10-05T22:20:32.865Z,11.90
2018-10-05T22:23:01.284Z,13.30
2018-10-05T22:25:29.598Z,11.33
2018-10-05T22:27:57.901Z,11.67
2018-10-05T22:30:26.223Z,10.37
2018-10-05T22:32:54.520Z,10.43
2018-10-05T22:35:22.869Z,10.43
2018-10-05T22:37:51.539Z,11.90
2018-10-05T22:40:19.874Z,9.83
2018-10-05T22:42:48.176Z,10.10
2018-10-05T22:45:16.506Z,10.43
2018-10-05T22:47:44.925Z,10.50
2018-10-05T22:50:13.252Z,11.37
2018-10-05T22:52:41.573Z,9.63
2018-10-05T22:55:09.912Z,10.13
2018-10-05T22:57:38.235Z,13.10
2018-10-05T23:00:06.758Z,9.47
2018-10-05T23:02:35.092Z,10.17
2018-10-05T23:05:03.408Z,9.43
2018-10-05T23:07:31.724Z,10.27
2018-10-05T23:10:00.026Z,10.50
2018-10-05T23:12:28.373Z,12.07
2018-10-05T23:14:56.680Z,10.00
2018-10-05T23:17:25.001Z,10.10
2018-10-05T23:19:53.289Z,14.27
2018-10-05T23:22:21.631Z,10.63
2018-10-05T23:24:50.004Z,10.17
2018-10-05T23:27:18.302Z,10.47
2018-10-05T23:29:46.606Z,10.07
2018-10-05T23:32:14.953Z,10.73
2018-10-05T23:34:43.266Z,10.77
2018-10-05T23:37:11.605Z,12.10
2018-10-05T23:39:39.908Z,11.13
2018-10-05T23:42:08.222Z,9.93
2018-10-05T23:44:36.536Z,10.23
2018-10-05T23:47:05.155Z,9.93
2018-10-05T23:49:33.484Z,9.90
2018-10-05T23:52:56.625Z,9.67
2018-10-05T23:55:24.929Z,9.20
2018-10-05T23:57:53.248Z,9.80
